Zarepath, New Jersey
Current Conditions -  °F | °C
As of 4:53 AM on Thursday 23 Oct 2014 (Local Time) from KSMQ Reporting Station
Light Rain Light Rain  
Wind Chill: 53°   Ceiling: 2600
Heat Index: 53°   Visibility: 9mi
Dew Point: 46°   Wind: 9mph
Humidity: 77%   Direction: 340°NNW
Pressure: 29.72"   Gusts: NA
Location:  40.5013°N, 74.5325°W
Report Text: KSMQ 230853Z AUTO 34008KT 9SM -RA OVC026 12/08 A2972 RMK AO2 RAB24 SLP066 P0000 60000 T01170078 55004
Loading
Personal Weather Stations






























Interactive Weather Map
Tropical Storm Tracking
New forecast layout! Learn more

10-Day Weather Forecast

Advertisements
Track Severe Weather on mobile